sensor_id;sensor_type;location;lat;lon;timestamp;temperature;humidity
10089;DHT22;51898;49.864;8.550;2023-07-31T00:02:38;18.50;68.50
10089;DHT22;51898;49.864;8.550;2023-07-31T00:05:40;18.60;67.90
10089;DHT22;51898;49.864;8.550;2023-07-31T00:08:42;18.60;68.00
10089;DHT22;51898;49.864;8.550;2023-07-31T00:11:43;18.60;67.60
10089;DHT22;51898;49.864;8.550;2023-07-31T00:14:45;18.60;67.90
10089;DHT22;51898;49.864;8.550;2023-07-31T00:17:47;18.60;67.70
10089;DHT22;51898;49.864;8.550;2023-07-31T00:20:49;18.60;67.90
10089;DHT22;51898;49.864;8.550;2023-07-31T00:23:51;18.60;67.60
10089;DHT22;51898;49.864;8.550;2023-07-31T00:26:52;18.60;67.40
10089;DHT22;51898;49.864;8.550;2023-07-31T00:29:54;18.60;67.30
10089;DHT22;51898;49.864;8.550;2023-07-31T00:32:55;18.60;67.00
10089;DHT22;51898;49.864;8.550;2023-07-31T00:35:57;18.60;67.10
10089;DHT22;51898;49.864;8.550;2023-07-31T00:38:59;18.60;66.60
10089;DHT22;51898;49.864;8.550;2023-07-31T00:42:03;18.70;67.00
10089;DHT22;51898;49.864;8.550;2023-07-31T00:45:06;18.70;67.10
10089;DHT22;51898;49.864;8.550;2023-07-31T00:48:07;18.60;66.90
10089;DHT22;51898;49.864;8.550;2023-07-31T00:51:10;18.70;67.10
10089;DHT22;51898;49.864;8.550;2023-07-31T00:54:12;18.70;66.80
10089;DHT22;51898;49.864;8.550;2023-07-31T00:57:14;18.60;66.90
10089;DHT22;51898;49.864;8.550;2023-07-31T01:00:16;18.60;66.60
10089;DHT22;51898;49.864;8.550;2023-07-31T01:03:18;18.60;67.00
10089;DHT22;51898;49.864;8.550;2023-07-31T01:06:48;18.70;66.80
10089;DHT22;51898;49.864;8.550;2023-07-31T01:10:01;18.70;65.90
10089;DHT22;51898;49.864;8.550;2023-07-31T01:13:04;18.80;66.20
10089;DHT22;51898;49.864;8.550;2023-07-31T01:16:07;18.70;66.20
10089;DHT22;51898;49.864;8.550;2023-07-31T01:19:10;18.80;66.00
10089;DHT22;51898;49.864;8.550;2023-07-31T01:26:03;18.70;66.50
10089;DHT22;51898;49.864;8.550;2023-07-31T01:29:12;18.60;66.00
10089;DHT22;51898;49.864;8.550;2023-07-31T01:32:19;18.60;66.50
10089;DHT22;51898;49.864;8.550;2023-07-31T01:35:21;18.60;66.30
10089;DHT22;51898;49.864;8.550;2023-07-31T01:38:23;18.60;66.00
10089;DHT22;51898;49.864;8.550;2023-07-31T01:41:24;18.60;65.90
10089;DHT22;51898;49.864;8.550;2023-07-31T01:44:29;18.70;66.10
10089;DHT22;51898;49.864;8.550;2023-07-31T01:47:31;18.70;65.70
10089;DHT22;51898;49.864;8.550;2023-07-31T01:50:32;18.70;65.70
10089;DHT22;51898;49.864;8.550;2023-07-31T01:53:34;18.70;65.10
10089;DHT22;51898;49.864;8.550;2023-07-31T01:56:38;18.80;64.90
10089;DHT22;51898;49.864;8.550;2023-07-31T01:59:40;18.80;64.80
10089;DHT22;51898;49.864;8.550;2023-07-31T02:02:42;18.80;65.00
10089;DHT22;51898;49.864;8.550;2023-07-31T02:05:47;18.80;65.00
10089;DHT22;51898;49.864;8.550;2023-07-31T02:08:49;18.80;65.30
10089;DHT22;51898;49.864;8.550;2023-07-31T02:11:51;18.80;65.10
10089;DHT22;51898;49.864;8.550;2023-07-31T02:14:52;18.70;65.10
10089;DHT22;51898;49.864;8.550;2023-07-31T02:17:54;18.70;65.30
10089;DHT22;51898;49.864;8.550;2023-07-31T02:20:56;18.60;65.70
10089;DHT22;51898;49.864;8.550;2023-07-31T02:23:58;18.70;65.80
10089;DHT22;51898;49.864;8.550;2023-07-31T02:26:59;18.60;65.90
10089;DHT22;51898;49.864;8.550;2023-07-31T02:30:01;18.60;66.30
10089;DHT22;51898;49.864;8.550;2023-07-31T02:33:03;18.60;66.10
10089;DHT22;51898;49.864;8.550;2023-07-31T02:36:05;18.60;66.50
10089;DHT22;51898;49.864;8.550;2023-07-31T02:39:06;18.50;66.60
10089;DHT22;51898;49.864;8.550;2023-07-31T02:42:08;18.50;66.50
10089;DHT22;51898;49.864;8.550;2023-07-31T02:45:09;18.40;67.00
10089;DHT22;51898;49.864;8.550;2023-07-31T02:48:11;18.40;67.10
10089;DHT22;51898;49.864;8.550;2023-07-31T02:51:13;18.30;67.80
10089;DHT22;51898;49.864;8.550;2023-07-31T02:54:14;18.30;68.50
10089;DHT22;51898;49.864;8.550;2023-07-31T02:57:16;18.20;69.30
10089;DHT22;51898;49.864;8.550;2023-07-31T03:00:18;18.20;69.60
10089;DHT22;51898;49.864;8.550;2023-07-31T03:03:20;18.20;69.70
10089;DHT22;51898;49.864;8.550;2023-07-31T03:06:22;18.20;69.90
10089;DHT22;51898;49.864;8.550;2023-07-31T03:09:24;18.10;69.40
10089;DHT22;51898;49.864;8.550;2023-07-31T03:12:26;18.10;69.40
10089;DHT22;51898;49.864;8.550;2023-07-31T03:15:27;18.10;69.80
10089;DHT22;51898;49.864;8.550;2023-07-31T03:18:29;18.10;69.40
10089;DHT22;51898;49.864;8.550;2023-07-31T03:21:31;18.10;69.00
10089;DHT22;51898;49.864;8.550;2023-07-31T03:24:32;18.10;68.70
10089;DHT22;51898;49.864;8.550;2023-07-31T03:27:34;18.20;69.10
10089;DHT22;51898;49.864;8.550;2023-07-31T03:30:38;18.10;69.10
10089;DHT22;51898;49.864;8.550;2023-07-31T03:33:40;18.10;69.30
10089;DHT22;51898;49.864;8.550;2023-07-31T03:36:41;18.10;69.60
10089;DHT22;51898;49.864;8.550;2023-07-31T03:39:46;18.10;70.00
10089;DHT22;51898;49.864;8.550;2023-07-31T03:42:48;18.10;71.50
10089;DHT22;51898;49.864;8.550;2023-07-31T03:45:49;18.00;72.40
10089;DHT22;51898;49.864;8.550;2023-07-31T03:48:51;18.00;73.70
10089;DHT22;51898;49.864;8.550;2023-07-31T03:51:53;17.90;74.60
10089;DHT22;51898;49.864;8.550;2023-07-31T03:54:55;17.80;75.40
10089;DHT22;51898;49.864;8.550;2023-07-31T03:57:58;17.80;76.10
10089;DHT22;51898;49.864;8.550;2023-07-31T04:01:01;17.70;76.40
10089;DHT22;51898;49.864;8.550;2023-07-31T04:04:03;17.60;76.80
10089;DHT22;51898;49.864;8.550;2023-07-31T04:07:05;17.50;76.90
10089;DHT22;51898;49.864;8.550;2023-07-31T04:10:07;17.50;77.30
10089;DHT22;51898;49.864;8.550;2023-07-31T04:13:11;17.40;77.00
10089;DHT22;51898;49.864;8.550;2023-07-31T04:16:13;17.40;77.40
10089;DHT22;51898;49.864;8.550;2023-07-31T04:19:15;17.40;77.20
10089;DHT22;51898;49.864;8.550;2023-07-31T04:22:18;17.40;76.80
10089;DHT22;51898;49.864;8.550;2023-07-31T04:25:19;17.40;76.60
10089;DHT22;51898;49.864;8.550;2023-07-31T04:28:21;17.40;76.10
10089;DHT22;51898;49.864;8.550;2023-07-31T04:31:23;17.40;75.90
10089;DHT22;51898;49.864;8.550;2023-07-31T04:34:25;17.50;75.50
10089;DHT22;51898;49.864;8.550;2023-07-31T04:37:26;17.50;75.20
10089;DHT22;51898;49.864;8.550;2023-07-31T04:40:28;17.50;74.70
10089;DHT22;51898;49.864;8.550;2023-07-31T04:43:30;17.50;74.60
10089;DHT22;51898;49.864;8.550;2023-07-31T04:46:31;17.60;74.40
10089;DHT22;51898;49.864;8.550;2023-07-31T04:49:33;17.60;74.20
10089;DHT22;51898;49.864;8.550;2023-07-31T04:52:35;17.60;73.60
10089;DHT22;51898;49.864;8.550;2023-07-31T04:55:37;17.60;73.40
10089;DHT22;51898;49.864;8.550;2023-07-31T04:58:39;17.70;73.10
10089;DHT22;51898;49.864;8.550;2023-07-31T05:01:40;17.70;72.90
10089;DHT22;51898;49.864;8.550;2023-07-31T05:04:42;17.70;72.50
10089;DHT22;51898;49.864;8.550;2023-07-31T05:07:44;17.80;72.50
10089;DHT22;51898;49.864;8.550;2023-07-31T05:10:45;17.80;72.00
10089;DHT22;51898;49.864;8.550;2023-07-31T05:13:47;17.80;71.60
10089;DHT22;51898;49.864;8.550;2023-07-31T05:16:49;17.80;71.80
10089;DHT22;51898;49.864;8.550;2023-07-31T05:19:51;17.80;71.40
10089;DHT22;51898;49.864;8.550;2023-07-31T05:22:52;17.90;71.30
10089;DHT22;51898;49.864;8.550;2023-07-31T05:25:54;17.90;71.20
10089;DHT22;51898;49.864;8.550;2023-07-31T05:28:56;18.00;70.90
10089;DHT22;51898;49.864;8.550;2023-07-31T05:31:59;18.10;70.70
10089;DHT22;51898;49.864;8.550;2023-07-31T05:35:01;18.20;69.90
10089;DHT22;51898;49.864;8.550;2023-07-31T05:38:02;18.20;70.60
10089;DHT22;51898;49.864;8.550;2023-07-31T05:41:04;18.30;69.90
10089;DHT22;51898;49.864;8.550;2023-07-31T05:44:06;18.40;69.70
10089;DHT22;51898;49.864;8.550;2023-07-31T05:47:08;18.40;69.10
10089;DHT22;51898;49.864;8.550;2023-07-31T05:50:09;18.40;69.00
10089;DHT22;51898;49.864;8.550;2023-07-31T05:53:11;18.40;69.00
10089;DHT22;51898;49.864;8.550;2023-07-31T05:56:13;18.50;68.90
10089;DHT22;51898;49.864;8.550;2023-07-31T05:59:15;18.50;69.10
10089;DHT22;51898;49.864;8.550;2023-07-31T06:02:17;18.50;68.80
10089;DHT22;51898;49.864;8.550;2023-07-31T06:05:19;18.50;69.10
10089;DHT22;51898;49.864;8.550;2023-07-31T06:08:21;18.60;69.30
10089;DHT22;51898;49.864;8.550;2023-07-31T06:11:22;18.60;69.30
10089;DHT22;51898;49.864;8.550;2023-07-31T06:14:24;18.80;68.00
10089;DHT22;51898;49.864;8.550;2023-07-31T06:17:26;18.90;67.80
10089;DHT22;51898;49.864;8.550;2023-07-31T06:20:28;19.00;68.00
10089;DHT22;51898;49.864;8.550;2023-07-31T06:23:30;19.10;67.40
10089;DHT22;51898;49.864;8.550;2023-07-31T06:26:32;19.30;66.70
10089;DHT22;51898;49.864;8.550;2023-07-31T06:29:34;19.50;65.50
10089;DHT22;51898;49.864;8.550;2023-07-31T06:32:36;19.70;66.30
10089;DHT22;51898;49.864;8.550;2023-07-31T06:35:37;19.90;65.50
10089;DHT22;51898;49.864;8.550;2023-07-31T06:38:39;20.10;64.00
10089;DHT22;51898;49.864;8.550;2023-07-31T06:41:42;20.20;63.60
10089;DHT22;51898;49.864;8.550;2023-07-31T06:44:44;20.30;63.80
10089;DHT22;51898;49.864;8.550;2023-07-31T06:47:46;20.30;63.50
10089;DHT22;51898;49.864;8.550;2023-07-31T06:50:49;20.40;63.50
10089;DHT22;51898;49.864;8.550;2023-07-31T06:53:51;20.50;63.10
10089;DHT22;51898;49.864;8.550;2023-07-31T06:56:52;20.70;62.60
10089;DHT22;51898;49.864;8.550;2023-07-31T06:59:54;20.90;62.70
10089;DHT22;51898;49.864;8.550;2023-07-31T07:02:56;21.00;61.90
10089;DHT22;51898;49.864;8.550;2023-07-31T07:05:58;21.00;62.00
10089;DHT22;51898;49.864;8.550;2023-07-31T07:08:59;21.00;62.50
10089;DHT22;51898;49.864;8.550;2023-07-31T07:12:01;21.10;62.10
10089;DHT22;51898;49.864;8.550;2023-07-31T07:15:03;21.20;61.30
10089;DHT22;51898;49.864;8.550;2023-07-31T07:18:04;21.30;60.90
10089;DHT22;51898;49.864;8.550;2023-07-31T07:21:06;21.30;61.90
10089;DHT22;51898;49.864;8.550;2023-07-31T07:24:08;21.30;60.20
10089;DHT22;51898;49.864;8.550;2023-07-31T07:27:10;21.10;61.00
10089;DHT22;51898;49.864;8.550;2023-07-31T07:30:12;21.20;61.00
10089;DHT22;51898;49.864;8.550;2023-07-31T07:33:14;21.20;61.00
10089;DHT22;51898;49.864;8.550;2023-07-31T07:36:18;21.20;60.70
10089;DHT22;51898;49.864;8.550;2023-07-31T07:39:20;21.20;61.10
10089;DHT22;51898;49.864;8.550;2023-07-31T07:42:21;21.30;61.30
10089;DHT22;51898;49.864;8.550;2023-07-31T07:45:23;21.30;61.60
10089;DHT22;51898;49.864;8.550;2023-07-31T07:48:25;21.30;60.90
10089;DHT22;51898;49.864;8.550;2023-07-31T07:51:27;21.30;61.40
10089;DHT22;51898;49.864;8.550;2023-07-31T07:54:28;21.20;61.80
10089;DHT22;51898;49.864;8.550;2023-07-31T07:57:30;21.10;61.70
10089;DHT22;51898;49.864;8.550;2023-07-31T08:00:32;21.20;61.40
10089;DHT22;51898;49.864;8.550;2023-07-31T08:03:34;21.10;61.70
10089;DHT22;51898;49.864;8.550;2023-07-31T08:06:35;21.50;61.60
10089;DHT22;51898;49.864;8.550;2023-07-31T08:09:37;21.80;60.90
10089;DHT22;51898;49.864;8.550;2023-07-31T08:12:39;22.10;59.50
10089;DHT22;51898;49.864;8.550;2023-07-31T08:15:42;22.10;59.80
10089;DHT22;51898;49.864;8.550;2023-07-31T08:18:44;22.10;60.20
10089;DHT22;51898;49.864;8.550;2023-07-31T08:21:46;22.30;60.30
10089;DHT22;51898;49.864;8.550;2023-07-31T08:24:48;22.60;59.70
10089;DHT22;51898;49.864;8.550;2023-07-31T08:27:49;22.80;57.90
10089;DHT22;51898;49.864;8.550;2023-07-31T08:30:54;23.00;58.00
10089;DHT22;51898;49.864;8.550;2023-07-31T08:33:56;23.10;57.80
10089;DHT22;51898;49.864;8.550;2023-07-31T08:36:58;23.40;57.20
10089;DHT22;51898;49.864;8.550;2023-07-31T08:40:00;23.50;56.60
10089;DHT22;51898;49.864;8.550;2023-07-31T08:43:02;23.60;56.30
10089;DHT22;51898;49.864;8.550;2023-07-31T08:46:05;23.70;55.50
10089;DHT22;51898;49.864;8.550;2023-07-31T08:49:07;23.60;55.80
10089;DHT22;51898;49.864;8.550;2023-07-31T08:52:10;23.70;56.10
10089;DHT22;51898;49.864;8.550;2023-07-31T08:55:12;23.80;56.30
10089;DHT22;51898;49.864;8.550;2023-07-31T08:58:15;24.20;54.70
10089;DHT22;51898;49.864;8.550;2023-07-31T09:01:17;24.10;54.90
10089;DHT22;51898;49.864;8.550;2023-07-31T09:04:19;23.90;55.60
10089;DHT22;51898;49.864;8.550;2023-07-31T09:07:22;23.70;55.50
10089;DHT22;51898;49.864;8.550;2023-07-31T09:10:25;23.50;56.10
10089;DHT22;51898;49.864;8.550;2023-07-31T09:13:29;23.40;57.10
10089;DHT22;51898;49.864;8.550;2023-07-31T09:16:33;23.10;57.20
10089;DHT22;51898;49.864;8.550;2023-07-31T09:19:35;22.80;58.30
10089;DHT22;51898;49.864;8.550;2023-07-31T09:22:40;22.70;58.50
10089;DHT22;51898;49.864;8.550;2023-07-31T09:25:46;22.60;58.70
10089;DHT22;51898;49.864;8.550;2023-07-31T09:28:48;22.60;57.40
10089;DHT22;51898;49.864;8.550;2023-07-31T09:31:50;22.60;55.80
10089;DHT22;51898;49.864;8.550;2023-07-31T09:34:52;22.70;56.60
10089;DHT22;51898;49.864;8.550;2023-07-31T09:37:58;23.10;56.00
10089;DHT22;51898;49.864;8.550;2023-07-31T09:41:00;23.20;55.20
10089;DHT22;51898;49.864;8.550;2023-07-31T09:44:01;23.20;54.60
10089;DHT22;51898;49.864;8.550;2023-07-31T09:47:03;23.20;55.00
10089;DHT22;51898;49.864;8.550;2023-07-31T09:50:07;23.30;55.10
10089;DHT22;51898;49.864;8.550;2023-07-31T09:53:10;23.10;54.90
10089;DHT22;51898;49.864;8.550;2023-07-31T09:56:17;23.00;55.90
10089;DHT22;51898;49.864;8.550;2023-07-31T09:59:21;23.00;55.20
10089;DHT22;51898;49.864;8.550;2023-07-31T10:02:26;23.00;56.00
10089;DHT22;51898;49.864;8.550;2023-07-31T10:05:35;23.30;55.30
10089;DHT22;51898;49.864;8.550;2023-07-31T10:08:37;23.40;53.90
10089;DHT22;51898;49.864;8.550;2023-07-31T10:11:53;23.40;54.70
10089;DHT22;51898;49.864;8.550;2023-07-31T10:14:59;23.50;53.90
10089;DHT22;51898;49.864;8.550;2023-07-31T10:18:01;23.70;52.70
10089;DHT22;51898;49.864;8.550;2023-07-31T10:21:03;23.80;54.00
10089;DHT22;51898;49.864;8.550;2023-07-31T10:24:05;23.70;53.30
10089;DHT22;51898;49.864;8.550;2023-07-31T10:27:07;23.70;53.40
10089;DHT22;51898;49.864;8.550;2023-07-31T10:30:14;23.60;53.60
10089;DHT22;51898;49.864;8.550;2023-07-31T10:33:20;23.50;53.50
10089;DHT22;51898;49.864;8.550;2023-07-31T10:36:22;23.60;53.70
10089;DHT22;51898;49.864;8.550;2023-07-31T10:39:35;23.70;53.90
10089;DHT22;51898;49.864;8.550;2023-07-31T10:42:48;23.70;53.40
10089;DHT22;51898;49.864;8.550;2023-07-31T10:45:50;23.80;54.00
10089;DHT22;51898;49.864;8.550;2023-07-31T10:49:02;23.90;53.40
10089;DHT22;51898;49.864;8.550;2023-07-31T10:52:04;23.80;52.70
10089;DHT22;51898;49.864;8.550;2023-07-31T10:55:28;24.00;52.90
10089;DHT22;51898;49.864;8.550;2023-07-31T10:58:31;24.00;52.40
10089;DHT22;51898;49.864;8.550;2023-07-31T11:01:53;23.80;52.80
10089;DHT22;51898;49.864;8.550;2023-07-31T11:05:09;23.80;53.00
10089;DHT22;51898;49.864;8.550;2023-07-31T11:08:16;23.80;53.00
10089;DHT22;51898;49.864;8.550;2023-07-31T11:11:20;23.40;54.30
10089;DHT22;51898;49.864;8.550;2023-07-31T11:14:22;23.20;54.70
10089;DHT22;51898;49.864;8.550;2023-07-31T11:17:25;23.00;55.00
10089;DHT22;51898;49.864;8.550;2023-07-31T11:20:29;23.00;55.90
10089;DHT22;51898;49.864;8.550;2023-07-31T11:23:31;23.10;54.80
10089;DHT22;51898;49.864;8.550;2023-07-31T11:26:33;23.10;55.70
10089;DHT22;51898;49.864;8.550;2023-07-31T11:29:35;23.20;55.30
10089;DHT22;51898;49.864;8.550;2023-07-31T11:32:37;23.30;54.90
10089;DHT22;51898;49.864;8.550;2023-07-31T11:35:47;23.40;54.70
10089;DHT22;51898;49.864;8.550;2023-07-31T11:38:49;23.50;54.80
10089;DHT22;51898;49.864;8.550;2023-07-31T11:41:51;23.40;54.90
10089;DHT22;51898;49.864;8.550;2023-07-31T11:44:53;23.40;54.90
10089;DHT22;51898;49.864;8.550;2023-07-31T11:47:56;23.30;55.10
10089;DHT22;51898;49.864;8.550;2023-07-31T11:51:00;23.10;55.50
10089;DHT22;51898;49.864;8.550;2023-07-31T11:54:02;23.20;55.70
10089;DHT22;51898;49.864;8.550;2023-07-31T11:57:04;23.20;55.80
10089;DHT22;51898;49.864;8.550;2023-07-31T12:00:08;23.20;56.10
10089;DHT22;51898;49.864;8.550;2023-07-31T12:03:12;23.30;55.80
10089;DHT22;51898;49.864;8.550;2023-07-31T12:06:15;23.40;56.10
10089;DHT22;51898;49.864;8.550;2023-07-31T12:09:17;23.50;55.00
10089;DHT22;51898;49.864;8.550;2023-07-31T12:12:24;23.50;55.90
10089;DHT22;51898;49.864;8.550;2023-07-31T12:15:40;23.60;54.50
10089;DHT22;51898;49.864;8.550;2023-07-31T12:18:42;23.60;54.30
10089;DHT22;51898;49.864;8.550;2023-07-31T12:21:44;23.50;54.30
10089;DHT22;51898;49.864;8.550;2023-07-31T12:24:46;23.30;55.00
10089;DHT22;51898;49.864;8.550;2023-07-31T12:27:50;23.10;56.10
10089;DHT22;51898;49.864;8.550;2023-07-31T12:30:57;23.00;56.00
10089;DHT22;51898;49.864;8.550;2023-07-31T12:34:01;23.00;56.40
10089;DHT22;51898;49.864;8.550;2023-07-31T12:37:06;22.90;56.60
10089;DHT22;51898;49.864;8.550;2023-07-31T12:40:08;23.00;57.10
10089;DHT22;51898;49.864;8.550;2023-07-31T12:43:10;23.00;56.60
10089;DHT22;51898;49.864;8.550;2023-07-31T12:46:12;23.10;56.20
10089;DHT22;51898;49.864;8.550;2023-07-31T12:49:14;23.30;56.00
10089;DHT22;51898;49.864;8.550;2023-07-31T12:52:16;23.50;55.40
10089;DHT22;51898;49.864;8.550;2023-07-31T12:55:21;23.70;55.00
10089;DHT22;51898;49.864;8.550;2023-07-31T12:58:24;23.70;54.80
10089;DHT22;51898;49.864;8.550;2023-07-31T13:01:26;23.80;55.30
10089;DHT22;51898;49.864;8.550;2023-07-31T13:04:28;23.80;54.50
10089;DHT22;51898;49.864;8.550;2023-07-31T13:07:31;24.00;54.60
10089;DHT22;51898;49.864;8.550;2023-07-31T13:10:33;24.50;55.00
10089;DHT22;51898;49.864;8.550;2023-07-31T13:13:35;25.00;52.10
10089;DHT22;51898;49.864;8.550;2023-07-31T13:16:37;25.50;50.40
10089;DHT22;51898;49.864;8.550;2023-07-31T13:19:40;25.60;50.40
10089;DHT22;51898;49.864;8.550;2023-07-31T13:22:42;25.40;50.30
10089;DHT22;51898;49.864;8.550;2023-07-31T13:25:47;25.00;50.70
10089;DHT22;51898;49.864;8.550;2023-07-31T13:28:51;24.90;52.00
10089;DHT22;51898;49.864;8.550;2023-07-31T13:31:53;24.50;52.20
10089;DHT22;51898;49.864;8.550;2023-07-31T13:34:55;24.30;52.80
10089;DHT22;51898;49.864;8.550;2023-07-31T13:37:57;24.10;52.90
10089;DHT22;51898;49.864;8.550;2023-07-31T13:40:59;23.90;54.00
10089;DHT22;51898;49.864;8.550;2023-07-31T13:44:01;23.80;54.10
10089;DHT22;51898;49.864;8.550;2023-07-31T13:47:03;23.70;54.20
10089;DHT22;51898;49.864;8.550;2023-07-31T13:50:05;23.60;55.20
10089;DHT22;51898;49.864;8.550;2023-07-31T13:53:08;23.50;54.80
10089;DHT22;51898;49.864;8.550;2023-07-31T13:56:09;23.30;55.20
10089;DHT22;51898;49.864;8.550;2023-07-31T13:59:12;23.20;55.90
10089;DHT22;51898;49.864;8.550;2023-07-31T14:02:14;23.20;56.10
10089;DHT22;51898;49.864;8.550;2023-07-31T14:05:17;23.20;55.90
10089;DHT22;51898;49.864;8.550;2023-07-31T14:08:19;23.20;55.80
10089;DHT22;51898;49.864;8.550;2023-07-31T14:11:22;23.20;55.90
10089;DHT22;51898;49.864;8.550;2023-07-31T14:14:24;23.20;56.30
10089;DHT22;51898;49.864;8.550;2023-07-31T14:17:26;23.20;56.50
10089;DHT22;51898;49.864;8.550;2023-07-31T14:20:29;23.00;57.30
10089;DHT22;51898;49.864;8.550;2023-07-31T14:23:32;22.90;57.10
10089;DHT22;51898;49.864;8.550;2023-07-31T14:26:34;22.80;57.10
10089;DHT22;51898;49.864;8.550;2023-07-31T14:29:36;22.70;57.60
10089;DHT22;51898;49.864;8.550;2023-07-31T14:32:38;22.80;57.30
10089;DHT22;51898;49.864;8.550;2023-07-31T14:35:40;22.80;57.60
10089;DHT22;51898;49.864;8.550;2023-07-31T14:38:42;22.70;57.20
10089;DHT22;51898;49.864;8.550;2023-07-31T14:41:44;22.70;57.50
10089;DHT22;51898;49.864;8.550;2023-07-31T14:44:46;22.70;57.60
10089;DHT22;51898;49.864;8.550;2023-07-31T14:47:49;22.70;57.30
10089;DHT22;51898;49.864;8.550;2023-07-31T14:50:51;22.80;56.90
10089;DHT22;51898;49.864;8.550;2023-07-31T14:53:53;22.80;57.30
10089;DHT22;51898;49.864;8.550;2023-07-31T14:56:54;23.00;57.30
10089;DHT22;51898;49.864;8.550;2023-07-31T14:59:57;23.00;57.80
10089;DHT22;51898;49.864;8.550;2023-07-31T15:02:59;23.00;56.90
10089;DHT22;51898;49.864;8.550;2023-07-31T15:06:02;23.00;57.30
10089;DHT22;51898;49.864;8.550;2023-07-31T15:09:04;23.00;57.70
10089;DHT22;51898;49.864;8.550;2023-07-31T15:12:06;22.80;58.20
10089;DHT22;51898;49.864;8.550;2023-07-31T15:15:09;22.70;57.80
10089;DHT22;51898;49.864;8.550;2023-07-31T15:18:11;22.70;58.30
10089;DHT22;51898;49.864;8.550;2023-07-31T15:21:13;22.60;58.40
10089;DHT22;51898;49.864;8.550;2023-07-31T15:24:15;22.70;58.80
10089;DHT22;51898;49.864;8.550;2023-07-31T15:27:17;22.70;58.50
10089;DHT22;51898;49.864;8.550;2023-07-31T15:30:19;22.80;58.50
10089;DHT22;51898;49.864;8.550;2023-07-31T15:33:21;22.80;57.60
10089;DHT22;51898;49.864;8.550;2023-07-31T15:36:23;22.80;57.40
10089;DHT22;51898;49.864;8.550;2023-07-31T15:39:25;22.80;57.70
10089;DHT22;51898;49.864;8.550;2023-07-31T15:42:27;22.80;58.10
10089;DHT22;51898;49.864;8.550;2023-07-31T15:45:29;22.80;57.40
10089;DHT22;51898;49.864;8.550;2023-07-31T15:48:32;22.70;57.40
10089;DHT22;51898;49.864;8.550;2023-07-31T15:51:34;22.60;57.00
10089;DHT22;51898;49.864;8.550;2023-07-31T15:54:36;22.60;57.10
10089;DHT22;51898;49.864;8.550;2023-07-31T15:57:38;22.70;57.30
10089;DHT22;51898;49.864;8.550;2023-07-31T16:00:40;22.70;56.70
10089;DHT22;51898;49.864;8.550;2023-07-31T16:03:42;22.70;56.90
10089;DHT22;51898;49.864;8.550;2023-07-31T16:06:45;22.70;57.70
10089;DHT22;51898;49.864;8.550;2023-07-31T16:09:47;22.60;57.20
10089;DHT22;51898;49.864;8.550;2023-07-31T16:12:49;22.60;57.90
10089;DHT22;51898;49.864;8.550;2023-07-31T16:15:51;22.50;58.90
10089;DHT22;51898;49.864;8.550;2023-07-31T16:18:53;22.40;60.00
10089;DHT22;51898;49.864;8.550;2023-07-31T16:21:56;22.20;60.60
10089;DHT22;51898;49.864;8.550;2023-07-31T16:24:58;22.10;61.20
10089;DHT22;51898;49.864;8.550;2023-07-31T16:28:00;22.00;62.50
10089;DHT22;51898;49.864;8.550;2023-07-31T16:31:01;21.90;64.40
10089;DHT22;51898;49.864;8.550;2023-07-31T16:34:04;21.60;66.70
10089;DHT22;51898;49.864;8.550;2023-07-31T16:37:05;21.60;68.40
10089;DHT22;51898;49.864;8.550;2023-07-31T16:40:07;21.20;69.70
10089;DHT22;51898;49.864;8.550;2023-07-31T16:43:09;21.10;70.90
10089;DHT22;51898;49.864;8.550;2023-07-31T16:46:11;20.80;72.10
10089;DHT22;51898;49.864;8.550;2023-07-31T16:49:13;20.60;73.10
10089;DHT22;51898;49.864;8.550;2023-07-31T16:52:15;20.50;74.00
10089;DHT22;51898;49.864;8.550;2023-07-31T16:55:17;20.40;75.10
10089;DHT22;51898;49.864;8.550;2023-07-31T16:58:19;20.30;75.70
10089;DHT22;51898;49.864;8.550;2023-07-31T17:01:20;20.20;76.40
10089;DHT22;51898;49.864;8.550;2023-07-31T17:04:23;20.20;76.70
10089;DHT22;51898;49.864;8.550;2023-07-31T17:07:25;20.10;78.40
10089;DHT22;51898;49.864;8.550;2023-07-31T17:10:27;20.00;78.30
10089;DHT22;51898;49.864;8.550;2023-07-31T17:13:29;20.00;78.00
10089;DHT22;51898;49.864;8.550;2023-07-31T17:16:30;20.00;78.10
10089;DHT22;51898;49.864;8.550;2023-07-31T17:19:35;19.90;78.10
10089;DHT22;51898;49.864;8.550;2023-07-31T17:22:37;19.80;79.10
10089;DHT22;51898;49.864;8.550;2023-07-31T17:25:49;19.70;79.50
10089;DHT22;51898;49.864;8.550;2023-07-31T17:28:50;19.80;80.10
10089;DHT22;51898;49.864;8.550;2023-07-31T17:31:52;19.80;80.30
10089;DHT22;51898;49.864;8.550;2023-07-31T17:34:54;19.70;80.90
10089;DHT22;51898;49.864;8.550;2023-07-31T17:37:56;19.60;80.80
10089;DHT22;51898;49.864;8.550;2023-07-31T17:40:59;19.60;81.00
10089;DHT22;51898;49.864;8.550;2023-07-31T17:44:01;19.70;81.40
10089;DHT22;51898;49.864;8.550;2023-07-31T17:47:03;19.70;81.20
10089;DHT22;51898;49.864;8.550;2023-07-31T17:50:05;19.80;81.50
10089;DHT22;51898;49.864;8.550;2023-07-31T17:53:07;19.80;81.60
10089;DHT22;51898;49.864;8.550;2023-07-31T17:56:09;19.70;81.40
10089;DHT22;51898;49.864;8.550;2023-07-31T17:59:11;19.80;81.80
10089;DHT22;51898;49.864;8.550;2023-07-31T18:02:13;19.80;81.70
10089;DHT22;51898;49.864;8.550;2023-07-31T18:05:15;19.70;81.70
10089;DHT22;51898;49.864;8.550;2023-07-31T18:08:17;19.80;81.50
10089;DHT22;51898;49.864;8.550;2023-07-31T18:11:20;19.70;82.40
10089;DHT22;51898;49.864;8.550;2023-07-31T18:14:22;19.70;82.60
10089;DHT22;51898;49.864;8.550;2023-07-31T18:17:27;19.60;83.10
10089;DHT22;51898;49.864;8.550;2023-07-31T18:20:28;19.60;83.50
10089;DHT22;51898;49.864;8.550;2023-07-31T18:23:30;19.60;83.60
10089;DHT22;51898;49.864;8.550;2023-07-31T18:26:32;19.60;83.90
10089;DHT22;51898;49.864;8.550;2023-07-31T18:29:34;19.50;84.10
10089;DHT22;51898;49.864;8.550;2023-07-31T18:32:37;19.50;84.40
10089;DHT22;51898;49.864;8.550;2023-07-31T18:35:39;19.40;82.50
10089;DHT22;51898;49.864;8.550;2023-07-31T18:38:40;19.40;81.50
10089;DHT22;51898;49.864;8.550;2023-07-31T18:41:42;19.40;81.50
10089;DHT22;51898;49.864;8.550;2023-07-31T18:44:44;19.40;80.70
10089;DHT22;51898;49.864;8.550;2023-07-31T18:47:45;19.50;79.70
10089;DHT22;51898;49.864;8.550;2023-07-31T18:50:47;19.50;78.60
10089;DHT22;51898;49.864;8.550;2023-07-31T18:53:49;19.50;78.50
10089;DHT22;51898;49.864;8.550;2023-07-31T18:56:52;19.40;78.20
10089;DHT22;51898;49.864;8.550;2023-07-31T18:59:53;19.40;76.90
10089;DHT22;51898;49.864;8.550;2023-07-31T19:02:55;19.40;76.80
10089;DHT22;51898;49.864;8.550;2023-07-31T19:06:04;19.30;77.00
10089;DHT22;51898;49.864;8.550;2023-07-31T19:09:05;19.30;76.90
10089;DHT22;51898;49.864;8.550;2023-07-31T19:12:08;19.30;77.00
10089;DHT22;51898;49.864;8.550;2023-07-31T19:15:09;19.20;77.50
10089;DHT22;51898;49.864;8.550;2023-07-31T19:18:11;19.20;77.40